KFFT/FFT METAR and TAF weather

Enter ICAO airport designator
Station Type Date Time Source
KFFT METAR 2021/01/27 13:53 UTC NOAA

KFFT 271353Z AUTO 03005KT 10SM OVC023 02/M03 A3016 RMK AO2 SLP217 T00171033


Station Type Date Time Source
KFFT Decoded METAR 2021/01/27 13:53 UTC NOAA

FRANKFORT CAPITAL CITY AIRPORT , KY, United States (KFFT) 38-11N 84-54W 236M
Jan 27, 2021 - 08:53 AM EST / 2021.01.27 1353 UTC
Wind: from the NNE (030 degrees) at 6 MPH (5 KT):0
Visibility: 10 mile(s):0
Sky conditions: overcast
Temperature: 35.1 F (1.7 C)
Dew Point: 26.1 F (-3.3 C)
Relative Humidity: 69%
Pressure (altimeter): 30.16 in. Hg (1021 hPa)
ob: KFFT 271353Z AUTO 03005KT 10SM OVC023 02/M03 A3016 RMK AO2 SLP217 T00171033
cycle: 14

Station Type Date Time Source
KFFT TAF UTC NOAA

Error!

Example: see airport list